AXB2662 VOMM-VOBL
Flight info
| Callsign | AXB2662 |
|---|---|
| Flight time | 0h 34m |
| Altitude | 20000 |
| Route | XIVIL2A XIVIL W117 BIA |
| Aircraft | B738/M-SDE2E3FGHIRWXY/LB1 |
Departure
| Time | 2026-05-09 04:46 |
|---|---|
| Airport | Chennai International Airport (VOMM) |
Arrival
| Time | 2026-05-09 05:20 |
|---|---|
| Airport | Kempegowda International Airport Bengaluru (VOBL) |
| Time | Latitude | Longitude | Altitude | Speed | Heading |
|---|---|---|---|---|---|
| 2026-05-09 04:34 | 12.98440 | 80.16529 | 54 ft | 0 kts | 159° |
| 2026-05-09 04:35 | 12.98439 | 80.16529 | 54 ft | 0 kts | 159° |
| 2026-05-09 04:39 | 12.98445 | 80.16527 | 47 ft | 4 kts | 159° |
| 2026-05-09 04:39 | 12.98465 | 80.16519 | 48 ft | 4 kts | 165° |
| 2026-05-09 04:39 | 12.98489 | 80.16518 | 53 ft | 4 kts | 208° |
| 2026-05-09 04:39 | 12.98506 | 80.16535 | 54 ft | 2 kts | 249° |
| 2026-05-09 04:40 | 12.98506 | 80.16537 | 54 ft | 1 kts | 249° |
| 2026-05-09 04:42 | 12.98503 | 80.16528 | 54 ft | 4 kts | 250° |
| 2026-05-09 04:42 | 12.98482 | 80.16469 | 51 ft | 13 kts | 250° |
| 2026-05-09 04:42 | 12.98441 | 80.16357 | 54 ft | 20 kts | 250° |
| 2026-05-09 04:43 | 12.98393 | 80.16221 | 54 ft | 20 kts | 250° |
| 2026-05-09 04:43 | 12.98344 | 80.16088 | 54 ft | 20 kts | 249° |
| 2026-05-09 04:43 | 12.98295 | 80.15960 | 52 ft | 19 kts | 249° |
| 2026-05-09 04:43 | 12.98311 | 80.15830 | 54 ft | 18 kts | 287° |
| 2026-05-09 04:44 | 12.98347 | 80.15709 | 51 ft | 18 kts | 287° |
| 2026-05-09 04:44 | 12.98378 | 80.15587 | 51 ft | 18 kts | 284° |
| 2026-05-09 04:44 | 12.98414 | 80.15462 | 54 ft | 14 kts | 301° |
| 2026-05-09 04:44 | 12.98472 | 80.15455 | 55 ft | 9 kts | 47° |
| 2026-05-09 04:45 | 12.98507 | 80.15540 | 53 ft | 30 kts | 69° |
| 2026-05-09 04:45 | 12.98675 | 80.15986 | 51 ft | 103 kts | 69° |
| 2026-05-09 04:45 | 12.99010 | 80.16874 | 84 ft | 159 kts | 69° |
| 2026-05-09 04:45 | 12.99202 | 80.17380 | 296 ft | 167 kts | 70° |
| 2026-05-09 04:46 | 12.99424 | 80.17986 | 667 ft | 171 kts | 70° |
| 2026-05-09 04:46 | 12.99840 | 80.19112 | 1580 ft | 167 kts | 64° |
| 2026-05-09 04:46 | 13.00674 | 80.19977 | 2157 ft | 187 kts | 26° |
| 2026-05-09 04:46 | 13.02069 | 80.20097 | 2364 ft | 221 kts | 347° |
| 2026-05-09 04:47 | 13.03080 | 80.19799 | 2530 ft | 236 kts | 346° |
| 2026-05-09 04:47 | 13.05358 | 80.19325 | 2933 ft | 264 kts | 354° |
| 2026-05-09 04:47 | 13.06575 | 80.19173 | 3383 ft | 270 kts | 355° |
| 2026-05-09 04:47 | 13.08447 | 80.18990 | 4240 ft | 272 kts | 356° |
| 2026-05-09 04:48 | 13.10276 | 80.18440 | 5083 ft | 281 kts | 330° |
| 2026-05-09 04:48 | 13.11686 | 80.17034 | 5789 ft | 290 kts | 304° |
| 2026-05-09 04:48 | 13.12742 | 80.15248 | 6691 ft | 292 kts | 302° |
| 2026-05-09 04:48 | 13.13833 | 80.13493 | 7535 ft | 294 kts | 304° |
| 2026-05-09 04:49 | 13.14985 | 80.11737 | 8277 ft | 298 kts | 305° |
| 2026-05-09 04:49 | 13.15882 | 80.09817 | 9018 ft | 303 kts | 282° |
| 2026-05-09 04:49 | 13.16195 | 80.07676 | 9841 ft | 304 kts | 277° |
| 2026-05-09 04:49 | 13.16457 | 80.05488 | 10336 ft | 318 kts | 277° |
| 2026-05-09 04:50 | 13.16695 | 80.03419 | 10473 ft | 340 kts | 277° |
| 2026-05-09 04:50 | 13.16970 | 80.00998 | 10671 ft | 361 kts | 277° |
| 2026-05-09 04:50 | 13.17266 | 79.98395 | 11098 ft | 372 kts | 277° |
| 2026-05-09 04:50 | 13.17568 | 79.95747 | 11750 ft | 375 kts | 277° |
| 2026-05-09 04:51 | 13.17874 | 79.93081 | 12456 ft | 377 kts | 277° |
| 2026-05-09 04:51 | 13.18183 | 79.90404 | 13113 ft | 379 kts | 277° |
| 2026-05-09 04:51 | 13.18495 | 79.87706 | 13735 ft | 382 kts | 278° |
| 2026-05-09 04:51 | 13.18810 | 79.84983 | 14283 ft | 385 kts | 278° |
| 2026-05-09 04:52 | 13.19126 | 79.82249 | 14824 ft | 388 kts | 278° |
| 2026-05-09 04:52 | 13.19447 | 79.79481 | 15368 ft | 391 kts | 277° |
| 2026-05-09 04:52 | 13.19768 | 79.76703 | 15900 ft | 394 kts | 277° |
| 2026-05-09 04:52 | 13.20092 | 79.73897 | 16432 ft | 397 kts | 277° |
| 2026-05-09 04:53 | 13.20417 | 79.71074 | 16976 ft | 399 kts | 277° |
| 2026-05-09 04:53 | 13.20744 | 79.68239 | 17510 ft | 401 kts | 277° |
| 2026-05-09 04:53 | 13.21072 | 79.65385 | 18020 ft | 404 kts | 277° |
| 2026-05-09 04:53 | 13.21403 | 79.62514 | 18473 ft | 406 kts | 277° |
| 2026-05-09 04:54 | 13.21735 | 79.59622 | 18886 ft | 409 kts | 277° |
| 2026-05-09 04:54 | 13.22065 | 79.56750 | 19304 ft | 412 kts | 277° |
| 2026-05-09 04:54 | 13.22401 | 79.53823 | 19741 ft | 414 kts | 277° |
| 2026-05-09 04:54 | 13.22738 | 79.50878 | 19875 ft | 419 kts | 277° |
| 2026-05-09 04:55 | 13.23082 | 79.47876 | 19897 ft | 429 kts | 277° |
| 2026-05-09 04:55 | 13.23433 | 79.44811 | 19909 ft | 437 kts | 277° |
| 2026-05-09 04:55 | 13.23791 | 79.41671 | 19908 ft | 445 kts | 277° |
| 2026-05-09 04:55 | 13.24154 | 79.38489 | 19908 ft | 452 kts | 277° |
| 2026-05-09 04:56 | 13.24520 | 79.35279 | 19897 ft | 452 kts | 277° |
| 2026-05-09 04:56 | 13.24884 | 79.32077 | 19896 ft | 450 kts | 277° |
| 2026-05-09 04:56 | 13.25245 | 79.28897 | 19897 ft | 449 kts | 277° |
| 2026-05-09 04:56 | 13.25608 | 79.25705 | 19903 ft | 449 kts | 277° |
| 2026-05-09 04:57 | 13.25969 | 79.22522 | 19901 ft | 449 kts | 277° |
| 2026-05-09 04:57 | 13.26329 | 79.19344 | 19908 ft | 449 kts | 277° |
| 2026-05-09 04:57 | 13.26689 | 79.16165 | 19910 ft | 449 kts | 277° |
| 2026-05-09 04:57 | 13.27050 | 79.12976 | 19918 ft | 449 kts | 277° |
| 2026-05-09 04:58 | 13.27410 | 79.09789 | 19920 ft | 450 kts | 277° |
| 2026-05-09 04:58 | 13.27769 | 79.06604 | 19924 ft | 450 kts | 277° |
| 2026-05-09 04:58 | 13.28124 | 79.03448 | 19928 ft | 450 kts | 277° |
| 2026-05-09 04:58 | 13.28484 | 79.00256 | 19928 ft | 450 kts | 277° |
| 2026-05-09 04:59 | 13.28842 | 78.97069 | 19934 ft | 450 kts | 277° |
| 2026-05-09 04:59 | 13.29202 | 78.93867 | 19936 ft | 451 kts | 277° |
| 2026-05-09 04:59 | 13.29476 | 78.90667 | 19934 ft | 451 kts | 270° |
| 2026-05-09 04:59 | 13.29336 | 78.87451 | 19951 ft | 450 kts | 266° |
| 2026-05-09 05:00 | 13.29062 | 78.84244 | 19947 ft | 451 kts | 265° |
| 2026-05-09 05:00 | 13.28764 | 78.81049 | 19952 ft | 450 kts | 265° |
| 2026-05-09 05:00 | 13.28477 | 78.77844 | 19954 ft | 450 kts | 265° |
| 2026-05-09 05:00 | 13.28214 | 78.74642 | 19959 ft | 450 kts | 265° |
| 2026-05-09 05:01 | 13.27968 | 78.71437 | 19957 ft | 450 kts | 266° |
| 2026-05-09 05:01 | 13.27734 | 78.68235 | 19971 ft | 449 kts | 265° |
| 2026-05-09 05:01 | 13.27508 | 78.65077 | 19965 ft | 436 kts | 265° |
| 2026-05-09 05:01 | 13.27287 | 78.61993 | 19970 ft | 433 kts | 265° |
| 2026-05-09 05:02 | 13.27063 | 78.58899 | 19984 ft | 436 kts | 265° |
| 2026-05-09 05:02 | 13.26836 | 78.55774 | 19984 ft | 440 kts | 265° |
| 2026-05-09 05:02 | 13.26607 | 78.52637 | 19984 ft | 442 kts | 265° |
| 2026-05-09 05:02 | 13.26380 | 78.49530 | 19977 ft | 442 kts | 265° |
| 2026-05-09 05:03 | 13.26188 | 78.46384 | 19970 ft | 441 kts | 269° |
| 2026-05-09 05:03 | 13.26481 | 78.43266 | 19990 ft | 437 kts | 278° |
| 2026-05-09 05:03 | 13.27009 | 78.40259 | 19970 ft | 418 kts | 280° |
| 2026-05-09 05:03 | 13.27540 | 78.37373 | 19976 ft | 407 kts | 279° |
| 2026-05-09 05:04 | 13.28046 | 78.34518 | 19988 ft | 404 kts | 279° |
| 2026-05-09 05:04 | 13.28526 | 78.31666 | 19952 ft | 406 kts | 279° |
| 2026-05-09 05:04 | 13.28990 | 78.28804 | 19570 ft | 405 kts | 278° |
| 2026-05-09 05:04 | 13.29443 | 78.25956 | 19094 ft | 403 kts | 278° |
| 2026-05-09 05:05 | 13.29891 | 78.23129 | 18622 ft | 399 kts | 279° |
| 2026-05-09 05:05 | 13.30334 | 78.20322 | 18076 ft | 398 kts | 278° |
| 2026-05-09 05:05 | 13.30594 | 78.17505 | 17508 ft | 395 kts | 272° |
| 2026-05-09 05:05 | 13.30648 | 78.14691 | 16980 ft | 392 kts | 270° |
| 2026-05-09 05:06 | 13.30636 | 78.11934 | 16479 ft | 390 kts | 270° |
| 2026-05-09 05:06 | 13.30621 | 78.09154 | 15957 ft | 388 kts | 270° |
| 2026-05-09 05:06 | 13.30621 | 78.06420 | 15634 ft | 382 kts | 271° |
| 2026-05-09 05:06 | 13.30636 | 78.03723 | 15451 ft | 371 kts | 271° |
| 2026-05-09 05:07 | 13.30663 | 78.01101 | 15294 ft | 362 kts | 271° |
| 2026-05-09 05:07 | 13.30694 | 77.98553 | 15143 ft | 353 kts | 271° |
| 2026-05-09 05:07 | 13.30728 | 77.96063 | 14988 ft | 344 kts | 271° |
| 2026-05-09 05:07 | 13.30762 | 77.93634 | 14837 ft | 336 kts | 271° |
| 2026-05-09 05:08 | 13.30795 | 77.91259 | 14696 ft | 329 kts | 271° |
| 2026-05-09 05:08 | 13.30827 | 77.88937 | 14553 ft | 322 kts | 271° |
| 2026-05-09 05:08 | 13.30858 | 77.86668 | 14410 ft | 315 kts | 272° |
| 2026-05-09 05:08 | 13.30888 | 77.84476 | 14273 ft | 308 kts | 272° |
| 2026-05-09 05:09 | 13.30917 | 77.82299 | 14141 ft | 301 kts | 271° |
| 2026-05-09 05:09 | 13.30945 | 77.80174 | 14011 ft | 294 kts | 271° |
| 2026-05-09 05:09 | 13.30973 | 77.78076 | 13738 ft | 294 kts | 271° |
| 2026-05-09 05:09 | 13.30994 | 77.75972 | 13350 ft | 296 kts | 271° |
| 2026-05-09 05:10 | 13.31011 | 77.73856 | 13047 ft | 296 kts | 271° |
| 2026-05-09 05:10 | 13.31028 | 77.71746 | 12737 ft | 296 kts | 271° |
| 2026-05-09 05:10 | 13.31045 | 77.69631 | 12431 ft | 295 kts | 271° |
| 2026-05-09 05:10 | 13.31062 | 77.67530 | 12132 ft | 295 kts | 271° |
| 2026-05-09 05:11 | 13.31079 | 77.65421 | 11815 ft | 295 kts | 272° |
| 2026-05-09 05:11 | 13.31095 | 77.63314 | 11512 ft | 295 kts | 272° |
| 2026-05-09 05:11 | 13.31111 | 77.61205 | 11196 ft | 296 kts | 272° |
| 2026-05-09 05:11 | 13.31127 | 77.59095 | 10900 ft | 296 kts | 272° |
| 2026-05-09 05:12 | 13.31143 | 77.56981 | 10585 ft | 295 kts | 272° |
| 2026-05-09 05:12 | 13.31158 | 77.54888 | 10241 ft | 291 kts | 272° |
| 2026-05-09 05:12 | 13.31173 | 77.52818 | 9896 ft | 289 kts | 272° |
| 2026-05-09 05:12 | 13.31189 | 77.50784 | 9539 ft | 291 kts | 272° |
| 2026-05-09 05:13 | 13.31203 | 77.48691 | 9189 ft | 293 kts | 272° |
| 2026-05-09 05:13 | 13.31169 | 77.46563 | 8841 ft | 294 kts | 270° |
| 2026-05-09 05:13 | 13.30786 | 77.44537 | 8466 ft | 298 kts | 243° |
| 2026-05-09 05:13 | 13.29446 | 77.42952 | 8140 ft | 294 kts | 210° |
| 2026-05-09 05:14 | 13.27543 | 77.42286 | 7818 ft | 289 kts | 182° |
| 2026-05-09 05:14 | 13.25603 | 77.42565 | 7447 ft | 281 kts | 151° |
| 2026-05-09 05:14 | 13.24100 | 77.43780 | 7128 ft | 274 kts | 126° |
| 2026-05-09 05:14 | 13.23016 | 77.45383 | 6807 ft | 274 kts | 120° |
| 2026-05-09 05:15 | 13.22009 | 77.47031 | 6622 ft | 268 kts | 119° |
| 2026-05-09 05:15 | 13.21166 | 77.48687 | 6539 ft | 256 kts | 102° |
| 2026-05-09 05:15 | 13.20919 | 77.50469 | 6357 ft | 249 kts | 92° |
| 2026-05-09 05:15 | 13.20852 | 77.52207 | 6054 ft | 244 kts | 90° |
| 2026-05-09 05:16 | 13.20841 | 77.53912 | 5737 ft | 232 kts | 89° |
| 2026-05-09 05:16 | 13.20832 | 77.55521 | 5443 ft | 219 kts | 90° |
| 2026-05-09 05:16 | 13.20819 | 77.57034 | 5188 ft | 206 kts | 90° |
| 2026-05-09 05:16 | 13.20806 | 77.58463 | 4938 ft | 194 kts | 90° |
| 2026-05-09 05:17 | 13.20794 | 77.59806 | 4703 ft | 183 kts | 90° |
| 2026-05-09 05:17 | 13.20782 | 77.61048 | 4483 ft | 166 kts | 90° |
| 2026-05-09 05:17 | 13.20772 | 77.62202 | 4260 ft | 160 kts | 90° |
| 2026-05-09 05:17 | 13.20763 | 77.63327 | 4064 ft | 156 kts | 90° |
| 2026-05-09 05:18 | 13.20753 | 77.64433 | 3880 ft | 157 kts | 91° |
| 2026-05-09 05:18 | 13.20741 | 77.65571 | 3609 ft | 160 kts | 91° |
| 2026-05-09 05:18 | 13.20730 | 77.66658 | 3437 ft | 158 kts | 91° |
| 2026-05-09 05:18 | 13.20730 | 77.66848 | 3416 ft | 157 kts | 91° |
| 2026-05-09 05:19 | 13.20722 | 77.67853 | 3216 ft | 157 kts | 91° |
| 2026-05-09 05:19 | 13.20718 | 77.68968 | 3013 ft | 154 kts | 91° |
| 2026-05-09 05:19 | 13.20708 | 77.69946 | 3010 ft | 116 kts | 91° |
| 2026-05-09 05:19 | 13.20703 | 77.70620 | 3010 ft | 60 kts | 90° |
| 2026-05-09 05:20 | 13.20673 | 77.70907 | 3014 ft | 30 kts | 108° |
| 2026-05-09 05:20 | 13.20596 | 77.71070 | 3010 ft | 17 kts | 117° |
| 2026-05-09 05:20 | 13.20542 | 77.71173 | 3015 ft | 16 kts | 121° |
| 2026-05-09 05:20 | 13.20497 | 77.71272 | 3010 ft | 16 kts | 152° |
| 2026-05-09 05:21 | 13.20391 | 77.71276 | 3010 ft | 15 kts | 181° |
| 2026-05-09 05:21 | 13.20290 | 77.71286 | 3010 ft | 14 kts | 142° |
| 2026-05-09 05:21 | 13.20290 | 77.71331 | 3014 ft | 4 kts | 33° |
| 2026-05-09 05:21 | 13.20322 | 77.71335 | 3014 ft | 5 kts | 359° |
| 2026-05-09 05:22 | 13.20340 | 77.71335 | 3010 ft | 0 kts | 359° |